Warrensburg, Missouri
Current Conditions -  °F | °C
As of 2:15 AM on Saturday 25 Oct 2014 (Local Time) from KRCM Reporting Station
Clear Clear  
Wind Chill: 59°   Ceiling: Unl
Heat Index: 59°   Visibility: 10mi
Dew Point: 57°   Wind: 3mph
Humidity: 94%   Direction: 190°S
Pressure: 30.01"   Gusts: NA
Location:  38.77°N, 93.74°W
Report Text: KRCM 250715Z AUTO 19003KT 10SM CLR 15/14 A3001 RMK AO2
Loading
Personal Weather Stations






























Interactive Weather Map New forecast layout! Learn more

10-Day Weather Forecast

Advertisements
Track Severe Weather on mobile